Dana, Illinois
Current Conditions -  °F | °C
As of 11:55 AM on Monday 24 Nov 2014 (Local Time) from KPNT Reporting Station
Haze Haze  
Wind Chill: 21°   Ceiling: 1400
Heat Index: 33°   Visibility: 5mi
Dew Point: 31°   Wind: 22mph
Humidity: 91%   Direction: 250°WSW
Pressure: 29.48"   Gusts: 32mph
Location:  40.96°N, 88.95°W
Report Text: KPNT 241755Z AUTO 25019G28KT 5SM BR OVC014 01/00 A2948 RMK AO2 60035 T00081005 10058 20007
Loading
Personal Weather Stations






























Interactive Weather Map New forecast layout! Learn more

10-Day Weather Forecast

Advertisements
Track Severe Weather on mobile